sensor_id;sensor_type;location;lat;lon;timestamp;P1;durP1;ratioP1;P2;durP2;ratioP2
38851;SDS011;24605;50.092;9.182;2023-02-28T00:02:22;4.03;;;2.15;;
38851;SDS011;24605;50.092;9.182;2023-02-28T00:04:49;4.68;;;2.42;;
38851;SDS011;24605;50.092;9.182;2023-02-28T00:07:17;3.65;;;2.10;;
38851;SDS011;24605;50.092;9.182;2023-02-28T00:09:44;6.22;;;2.60;;
38851;SDS011;24605;50.092;9.182;2023-02-28T00:12:11;5.07;;;2.80;;
38851;SDS011;24605;50.092;9.182;2023-02-28T00:14:40;4.35;;;2.50;;
38851;SDS011;24605;50.092;9.182;2023-02-28T00:17:06;4.95;;;2.90;;
38851;SDS011;24605;50.092;9.182;2023-02-28T00:19:33;4.63;;;2.55;;
38851;SDS011;24605;50.092;9.182;2023-02-28T00:21:59;5.15;;;2.78;;
38851;SDS011;24605;50.092;9.182;2023-02-28T00:24:26;5.30;;;2.75;;
38851;SDS011;24605;50.092;9.182;2023-02-28T00:26:52;6.28;;;3.03;;
38851;SDS011;24605;50.092;9.182;2023-02-28T00:29:19;6.07;;;2.67;;
38851;SDS011;24605;50.092;9.182;2023-02-28T00:31:47;6.75;;;2.80;;
38851;SDS011;24605;50.092;9.182;2023-02-28T00:34:13;5.70;;;2.60;;
38851;SDS011;24605;50.092;9.182;2023-02-28T00:36:40;6.13;;;2.78;;
38851;SDS011;24605;50.092;9.182;2023-02-28T00:39:10;7.43;;;3.00;;
38851;SDS011;24605;50.092;9.182;2023-02-28T00:41:37;5.78;;;2.90;;
38851;SDS011;24605;50.092;9.182;2023-02-28T00:44:03;5.82;;;2.97;;
38851;SDS011;24605;50.092;9.182;2023-02-28T00:46:30;6.20;;;3.08;;
38851;SDS011;24605;50.092;9.182;2023-02-28T00:48:58;5.78;;;2.90;;
38851;SDS011;24605;50.092;9.182;2023-02-28T00:51:24;5.85;;;2.70;;
38851;SDS011;24605;50.092;9.182;2023-02-28T00:53:51;8.35;;;3.45;;
38851;SDS011;24605;50.092;9.182;2023-02-28T00:56:17;5.93;;;3.00;;
38851;SDS011;24605;50.092;9.182;2023-02-28T00:58:44;6.22;;;2.85;;
38851;SDS011;24605;50.092;9.182;2023-02-28T01:01:10;5.05;;;2.85;;
38851;SDS011;24605;50.092;9.182;2023-02-28T01:03:37;6.65;;;3.28;;
38851;SDS011;24605;50.092;9.182;2023-02-28T01:06:05;8.70;;;2.90;;
38851;SDS011;24605;50.092;9.182;2023-02-28T01:08:32;7.15;;;3.15;;
38851;SDS011;24605;50.092;9.182;2023-02-28T01:11:06;6.93;;;3.22;;
38851;SDS011;24605;50.092;9.182;2023-02-28T01:16:00;5.88;;;2.92;;
38851;SDS011;24605;50.092;9.182;2023-02-28T01:18:26;6.90;;;3.83;;
38851;SDS011;24605;50.092;9.182;2023-02-28T01:20:53;7.85;;;4.15;;
38851;SDS011;24605;50.092;9.182;2023-02-28T01:23:22;5.40;;;3.00;;
38851;SDS011;24605;50.092;9.182;2023-02-28T01:25:48;5.75;;;2.83;;
38851;SDS011;24605;50.092;9.182;2023-02-28T01:28:15;5.40;;;2.92;;
38851;SDS011;24605;50.092;9.182;2023-02-28T01:30:41;4.85;;;2.80;;
38851;SDS011;24605;50.092;9.182;2023-02-28T01:33:08;6.30;;;3.47;;
38851;SDS011;24605;50.092;9.182;2023-02-28T01:35:35;8.73;;;3.10;;
38851;SDS011;24605;50.092;9.182;2023-02-28T01:38:02;8.15;;;2.97;;
38851;SDS011;24605;50.092;9.182;2023-02-28T01:40:30;5.82;;;3.28;;
38851;SDS011;24605;50.092;9.182;2023-02-28T01:42:57;7.20;;;3.13;;
38851;SDS011;24605;50.092;9.182;2023-02-28T01:45:25;6.07;;;2.75;;
38851;SDS011;24605;50.092;9.182;2023-02-28T01:47:54;5.22;;;3.10;;
38851;SDS011;24605;50.092;9.182;2023-02-28T01:50:25;7.28;;;3.13;;
38851;SDS011;24605;50.092;9.182;2023-02-28T01:52:55;5.93;;;3.03;;
38851;SDS011;24605;50.092;9.182;2023-02-28T01:55:26;7.00;;;3.20;;
38851;SDS011;24605;50.092;9.182;2023-02-28T01:57:57;6.07;;;3.15;;
38851;SDS011;24605;50.092;9.182;2023-02-28T02:00:27;5.35;;;3.05;;
38851;SDS011;24605;50.092;9.182;2023-02-28T02:02:56;5.97;;;2.78;;
38851;SDS011;24605;50.092;9.182;2023-02-28T02:05:25;5.50;;;2.72;;
38851;SDS011;24605;50.092;9.182;2023-02-28T02:07:54;5.38;;;2.65;;
38851;SDS011;24605;50.092;9.182;2023-02-28T02:10:24;4.97;;;2.70;;
38851;SDS011;24605;50.092;9.182;2023-02-28T02:13:16;5.90;;;3.20;;
38851;SDS011;24605;50.092;9.182;2023-02-28T02:15:54;6.05;;;2.60;;
38851;SDS011;24605;50.092;9.182;2023-02-28T02:18:29;5.90;;;2.95;;
38851;SDS011;24605;50.092;9.182;2023-02-28T02:21:29;5.75;;;3.33;;
38851;SDS011;24605;50.092;9.182;2023-02-28T02:27:18;5.93;;;2.65;;
38851;SDS011;24605;50.092;9.182;2023-02-28T02:36:03;5.50;;;2.97;;
38851;SDS011;24605;50.092;9.182;2023-02-28T02:38:38;5.35;;;2.60;;
38851;SDS011;24605;50.092;9.182;2023-02-28T02:41:12;5.38;;;3.17;;
38851;SDS011;24605;50.092;9.182;2023-02-28T02:43:44;3.42;;;2.20;;
38851;SDS011;24605;50.092;9.182;2023-02-28T02:46:15;4.40;;;2.60;;
38851;SDS011;24605;50.092;9.182;2023-02-28T02:48:45;7.80;;;3.53;;
38851;SDS011;24605;50.092;9.182;2023-02-28T02:51:14;8.20;;;2.80;;
38851;SDS011;24605;50.092;9.182;2023-02-28T02:53:45;8.50;;;3.28;;
38851;SDS011;24605;50.092;9.182;2023-02-28T02:56:15;6.50;;;2.90;;
38851;SDS011;24605;50.092;9.182;2023-02-28T02:58:45;4.15;;;2.58;;
38851;SDS011;24605;50.092;9.182;2023-02-28T03:01:16;5.50;;;2.75;;
38851;SDS011;24605;50.092;9.182;2023-02-28T03:03:53;7.57;;;3.03;;
38851;SDS011;24605;50.092;9.182;2023-02-28T03:06:24;5.22;;;2.67;;
38851;SDS011;24605;50.092;9.182;2023-02-28T03:08:50;6.82;;;3.08;;
38851;SDS011;24605;50.092;9.182;2023-02-28T03:11:17;6.45;;;3.03;;
38851;SDS011;24605;50.092;9.182;2023-02-28T03:13:56;6.13;;;2.90;;
38851;SDS011;24605;50.092;9.182;2023-02-28T03:16:35;5.50;;;2.78;;
38851;SDS011;24605;50.092;9.182;2023-02-28T03:19:19;6.20;;;3.03;;
38851;SDS011;24605;50.092;9.182;2023-02-28T03:21:59;5.97;;;3.25;;
38851;SDS011;24605;50.092;9.182;2023-02-28T03:24:34;5.60;;;2.90;;
38851;SDS011;24605;50.092;9.182;2023-02-28T03:27:08;6.72;;;2.90;;
38851;SDS011;24605;50.092;9.182;2023-02-28T03:29:42;7.22;;;2.97;;
38851;SDS011;24605;50.092;9.182;2023-02-28T03:32:13;7.07;;;3.20;;
38851;SDS011;24605;50.092;9.182;2023-02-28T03:34:48;6.53;;;3.13;;
38851;SDS011;24605;50.092;9.182;2023-02-28T03:37:22;5.50;;;2.97;;
38851;SDS011;24605;50.092;9.182;2023-02-28T03:39:53;6.22;;;3.08;;
38851;SDS011;24605;50.092;9.182;2023-02-28T03:42:25;6.40;;;2.97;;
38851;SDS011;24605;50.092;9.182;2023-02-28T03:44:55;5.70;;;2.75;;
38851;SDS011;24605;50.092;9.182;2023-02-28T03:47:25;5.82;;;2.85;;
38851;SDS011;24605;50.092;9.182;2023-02-28T03:49:56;5.88;;;2.97;;
38851;SDS011;24605;50.092;9.182;2023-02-28T03:52:30;5.45;;;2.75;;
38851;SDS011;24605;50.092;9.182;2023-02-28T03:55:00;4.65;;;2.50;;
38851;SDS011;24605;50.092;9.182;2023-02-28T03:57:34;4.57;;;2.50;;
38851;SDS011;24605;50.092;9.182;2023-02-28T04:00:06;5.00;;;2.35;;
38851;SDS011;24605;50.092;9.182;2023-02-28T04:02:37;5.85;;;2.88;;
38851;SDS011;24605;50.092;9.182;2023-02-28T04:05:04;6.03;;;2.72;;
38851;SDS011;24605;50.092;9.182;2023-02-28T04:07:33;5.15;;;2.55;;
38851;SDS011;24605;50.092;9.182;2023-02-28T04:10:00;6.05;;;3.03;;
38851;SDS011;24605;50.092;9.182;2023-02-28T04:12:26;5.68;;;2.70;;
38851;SDS011;24605;50.092;9.182;2023-02-28T04:14:53;5.93;;;2.72;;
38851;SDS011;24605;50.092;9.182;2023-02-28T04:17:19;11.48;;;2.90;;
38851;SDS011;24605;50.092;9.182;2023-02-28T04:19:46;4.80;;;2.70;;
38851;SDS011;24605;50.092;9.182;2023-02-28T04:22:12;6.43;;;2.78;;
38851;SDS011;24605;50.092;9.182;2023-02-28T04:24:40;5.35;;;2.55;;
38851;SDS011;24605;50.092;9.182;2023-02-28T04:27:08;5.07;;;2.40;;
38851;SDS011;24605;50.092;9.182;2023-02-28T04:29:35;6.60;;;2.72;;
38851;SDS011;24605;50.092;9.182;2023-02-28T04:32:02;4.60;;;2.47;;
38851;SDS011;24605;50.092;9.182;2023-02-28T04:34:29;7.63;;;2.65;;
38851;SDS011;24605;50.092;9.182;2023-02-28T04:36:57;7.35;;;2.72;;
38851;SDS011;24605;50.092;9.182;2023-02-28T04:39:25;5.78;;;2.80;;
38851;SDS011;24605;50.092;9.182;2023-02-28T04:41:53;5.50;;;2.35;;
38851;SDS011;24605;50.092;9.182;2023-02-28T04:44:20;6.07;;;2.53;;
38851;SDS011;24605;50.092;9.182;2023-02-28T04:46:47;6.63;;;2.88;;
38851;SDS011;24605;50.092;9.182;2023-02-28T04:49:15;5.55;;;2.65;;
38851;SDS011;24605;50.092;9.182;2023-02-28T04:51:41;6.60;;;2.65;;
38851;SDS011;24605;50.092;9.182;2023-02-28T04:54:08;5.93;;;2.72;;
38851;SDS011;24605;50.092;9.182;2023-02-28T04:56:35;5.93;;;2.88;;
38851;SDS011;24605;50.092;9.182;2023-02-28T04:59:02;5.43;;;2.40;;
38851;SDS011;24605;50.092;9.182;2023-02-28T05:01:29;7.07;;;2.92;;
38851;SDS011;24605;50.092;9.182;2023-02-28T05:03:58;4.65;;;2.58;;
38851;SDS011;24605;50.092;9.182;2023-02-28T05:06:28;4.65;;;2.40;;
38851;SDS011;24605;50.092;9.182;2023-02-28T05:08:56;7.97;;;2.92;;
38851;SDS011;24605;50.092;9.182;2023-02-28T05:11:24;4.63;;;2.63;;
38851;SDS011;24605;50.092;9.182;2023-02-28T05:13:54;5.28;;;2.42;;
38851;SDS011;24605;50.092;9.182;2023-02-28T05:16:22;4.82;;;2.25;;
38851;SDS011;24605;50.092;9.182;2023-02-28T05:18:49;7.35;;;2.60;;
38851;SDS011;24605;50.092;9.182;2023-02-28T05:21:21;5.93;;;2.60;;
38851;SDS011;24605;50.092;9.182;2023-02-28T05:23:50;5.38;;;2.83;;
38851;SDS011;24605;50.092;9.182;2023-02-28T05:26:17;7.07;;;2.70;;
38851;SDS011;24605;50.092;9.182;2023-02-28T05:28:44;5.82;;;2.55;;
38851;SDS011;24605;50.092;9.182;2023-02-28T05:31:11;3.72;;;2.17;;
38851;SDS011;24605;50.092;9.182;2023-02-28T05:33:39;5.85;;;2.35;;
38851;SDS011;24605;50.092;9.182;2023-02-28T05:36:06;7.53;;;2.80;;
38851;SDS011;24605;50.092;9.182;2023-02-28T05:38:33;5.25;;;2.38;;
38851;SDS011;24605;50.092;9.182;2023-02-28T05:41:00;5.72;;;2.53;;
38851;SDS011;24605;50.092;9.182;2023-02-28T05:43:30;5.70;;;2.60;;
38851;SDS011;24605;50.092;9.182;2023-02-28T05:45:56;6.82;;;2.53;;
38851;SDS011;24605;50.092;9.182;2023-02-28T05:48:23;4.30;;;2.20;;
38851;SDS011;24605;50.092;9.182;2023-02-28T05:50:52;4.60;;;2.13;;
38851;SDS011;24605;50.092;9.182;2023-02-28T05:53:18;6.03;;;2.50;;
38851;SDS011;24605;50.092;9.182;2023-02-28T05:55:45;5.63;;;2.38;;
38851;SDS011;24605;50.092;9.182;2023-02-28T05:58:11;6.03;;;2.80;;
38851;SDS011;24605;50.092;9.182;2023-02-28T06:00:38;4.38;;;2.25;;
38851;SDS011;24605;50.092;9.182;2023-02-28T06:03:04;5.30;;;2.40;;
38851;SDS011;24605;50.092;9.182;2023-02-28T06:05:30;6.40;;;2.35;;
38851;SDS011;24605;50.092;9.182;2023-02-28T06:07:59;4.90;;;2.25;;
38851;SDS011;24605;50.092;9.182;2023-02-28T06:10:25;6.07;;;2.75;;
38851;SDS011;24605;50.092;9.182;2023-02-28T06:12:52;4.72;;;2.20;;
38851;SDS011;24605;50.092;9.182;2023-02-28T06:15:19;5.47;;;2.40;;
38851;SDS011;24605;50.092;9.182;2023-02-28T06:17:45;6.25;;;2.55;;
38851;SDS011;24605;50.092;9.182;2023-02-28T06:20:12;4.97;;;2.58;;
38851;SDS011;24605;50.092;9.182;2023-02-28T06:22:38;7.15;;;2.60;;
38851;SDS011;24605;50.092;9.182;2023-02-28T06:25:07;7.20;;;2.83;;
38851;SDS011;24605;50.092;9.182;2023-02-28T06:27:35;5.30;;;2.55;;
38851;SDS011;24605;50.092;9.182;2023-02-28T06:30:01;5.15;;;2.45;;
38851;SDS011;24605;50.092;9.182;2023-02-28T06:32:28;10.60;;;2.80;;
38851;SDS011;24605;50.092;9.182;2023-02-28T06:34:55;8.50;;;3.20;;
38851;SDS011;24605;50.092;9.182;2023-02-28T06:37:23;7.30;;;2.95;;
38851;SDS011;24605;50.092;9.182;2023-02-28T06:39:51;5.15;;;2.58;;
38851;SDS011;24605;50.092;9.182;2023-02-28T06:42:19;6.10;;;2.75;;
38851;SDS011;24605;50.092;9.182;2023-02-28T06:44:47;5.82;;;2.80;;
38851;SDS011;24605;50.092;9.182;2023-02-28T06:47:13;7.05;;;2.45;;
38851;SDS011;24605;50.092;9.182;2023-02-28T06:49:39;6.15;;;2.70;;
38851;SDS011;24605;50.092;9.182;2023-02-28T06:52:06;5.45;;;2.17;;
38851;SDS011;24605;50.092;9.182;2023-02-28T06:54:33;4.78;;;2.28;;
38851;SDS011;24605;50.092;9.182;2023-02-28T06:57:00;6.68;;;2.30;;
38851;SDS011;24605;50.092;9.182;2023-02-28T06:59:28;5.25;;;2.40;;
38851;SDS011;24605;50.092;9.182;2023-02-28T07:01:54;4.20;;;2.33;;
38851;SDS011;24605;50.092;9.182;2023-02-28T07:04:22;7.22;;;2.50;;
38851;SDS011;24605;50.092;9.182;2023-02-28T07:06:48;6.25;;;2.20;;
38851;SDS011;24605;50.092;9.182;2023-02-28T07:09:15;4.03;;;2.15;;
38851;SDS011;24605;50.092;9.182;2023-02-28T07:11:42;6.35;;;2.47;;
38851;SDS011;24605;50.092;9.182;2023-02-28T07:14:08;4.90;;;2.35;;
38851;SDS011;24605;50.092;9.182;2023-02-28T07:16:36;6.30;;;2.33;;
38851;SDS011;24605;50.092;9.182;2023-02-28T07:19:03;5.20;;;2.50;;
38851;SDS011;24605;50.092;9.182;2023-02-28T07:21:30;5.15;;;2.08;;
38851;SDS011;24605;50.092;9.182;2023-02-28T07:23:56;4.78;;;2.40;;
38851;SDS011;24605;50.092;9.182;2023-02-28T07:26:22;5.60;;;2.20;;
38851;SDS011;24605;50.092;9.182;2023-02-28T07:28:49;5.47;;;2.17;;
38851;SDS011;24605;50.092;9.182;2023-02-28T07:31:16;5.65;;;2.33;;
38851;SDS011;24605;50.092;9.182;2023-02-28T07:33:45;4.43;;;2.42;;
38851;SDS011;24605;50.092;9.182;2023-02-28T07:36:12;6.47;;;2.80;;
38851;SDS011;24605;50.092;9.182;2023-02-28T07:38:41;4.63;;;2.20;;
38851;SDS011;24605;50.092;9.182;2023-02-28T07:41:07;6.38;;;2.67;;
38851;SDS011;24605;50.092;9.182;2023-02-28T07:43:34;9.05;;;2.50;;
38851;SDS011;24605;50.092;9.182;2023-02-28T07:46:01;5.35;;;2.13;;
38851;SDS011;24605;50.092;9.182;2023-02-28T07:48:28;6.68;;;2.33;;
38851;SDS011;24605;50.092;9.182;2023-02-28T07:50:56;5.65;;;2.40;;
38851;SDS011;24605;50.092;9.182;2023-02-28T07:53:23;6.43;;;2.88;;
38851;SDS011;24605;50.092;9.182;2023-02-28T07:55:49;5.85;;;2.70;;
38851;SDS011;24605;50.092;9.182;2023-02-28T07:58:16;5.03;;;2.40;;
38851;SDS011;24605;50.092;9.182;2023-02-28T08:00:43;5.63;;;2.60;;
38851;SDS011;24605;50.092;9.182;2023-02-28T08:03:10;5.38;;;2.35;;
38851;SDS011;24605;50.092;9.182;2023-02-28T08:05:38;5.78;;;2.88;;
38851;SDS011;24605;50.092;9.182;2023-02-28T08:08:06;7.63;;;3.53;;
38851;SDS011;24605;50.092;9.182;2023-02-28T08:10:32;6.65;;;2.72;;
38851;SDS011;24605;50.092;9.182;2023-02-28T08:12:59;6.07;;;3.15;;
38851;SDS011;24605;50.092;9.182;2023-02-28T08:15:26;6.28;;;3.08;;
38851;SDS011;24605;50.092;9.182;2023-02-28T08:17:52;6.15;;;3.00;;
38851;SDS011;24605;50.092;9.182;2023-02-28T08:20:21;7.38;;;3.60;;
38851;SDS011;24605;50.092;9.182;2023-02-28T08:22:47;5.65;;;3.15;;
38851;SDS011;24605;50.092;9.182;2023-02-28T08:25:15;7.40;;;3.70;;
38851;SDS011;24605;50.092;9.182;2023-02-28T08:27:42;9.35;;;3.70;;
38851;SDS011;24605;50.092;9.182;2023-02-28T08:30:09;7.00;;;3.70;;
38851;SDS011;24605;50.092;9.182;2023-02-28T08:32:37;7.35;;;3.63;;
38851;SDS011;24605;50.092;9.182;2023-02-28T08:35:04;7.47;;;3.38;;
38851;SDS011;24605;50.092;9.182;2023-02-28T08:37:31;7.57;;;3.70;;
38851;SDS011;24605;50.092;9.182;2023-02-28T08:39:57;8.10;;;3.85;;
38851;SDS011;24605;50.092;9.182;2023-02-28T08:42:25;6.72;;;3.47;;
38851;SDS011;24605;50.092;9.182;2023-02-28T08:44:52;7.72;;;4.05;;
38851;SDS011;24605;50.092;9.182;2023-02-28T08:47:18;8.88;;;4.38;;
38851;SDS011;24605;50.092;9.182;2023-02-28T08:49:45;9.65;;;4.60;;
38851;SDS011;24605;50.092;9.182;2023-02-28T08:52:12;8.27;;;4.03;;
38851;SDS011;24605;50.092;9.182;2023-02-28T08:54:39;7.72;;;3.85;;
38851;SDS011;24605;50.092;9.182;2023-02-28T08:57:06;9.25;;;4.20;;
38851;SDS011;24605;50.092;9.182;2023-02-28T08:59:34;9.15;;;4.47;;
38851;SDS011;24605;50.092;9.182;2023-02-28T09:02:01;7.78;;;4.30;;
38851;SDS011;24605;50.092;9.182;2023-02-28T09:04:28;9.18;;;4.68;;
38851;SDS011;24605;50.092;9.182;2023-02-28T09:06:55;9.85;;;4.60;;
38851;SDS011;24605;50.092;9.182;2023-02-28T09:09:22;8.55;;;4.22;;
38851;SDS011;24605;50.092;9.182;2023-02-28T09:11:48;9.18;;;4.57;;
38851;SDS011;24605;50.092;9.182;2023-02-28T09:14:15;11.90;;;4.60;;
38851;SDS011;24605;50.092;9.182;2023-02-28T09:16:43;8.77;;;4.15;;
38851;SDS011;24605;50.092;9.182;2023-02-28T09:19:10;8.50;;;3.88;;
38851;SDS011;24605;50.092;9.182;2023-02-28T09:21:37;8.63;;;4.32;;
38851;SDS011;24605;50.092;9.182;2023-02-28T09:24:04;7.93;;;4.28;;
38851;SDS011;24605;50.092;9.182;2023-02-28T09:26:30;9.38;;;4.30;;
38851;SDS011;24605;50.092;9.182;2023-02-28T09:28:57;8.85;;;4.13;;
38851;SDS011;24605;50.092;9.182;2023-02-28T09:31:25;8.45;;;4.35;;
38851;SDS011;24605;50.092;9.182;2023-02-28T09:33:56;6.22;;;3.60;;
38851;SDS011;24605;50.092;9.182;2023-02-28T09:36:25;7.75;;;4.47;;
38851;SDS011;24605;50.092;9.182;2023-02-28T09:38:53;9.18;;;4.38;;
38851;SDS011;24605;50.092;9.182;2023-02-28T09:41:20;11.23;;;5.78;;
38851;SDS011;24605;50.092;9.182;2023-02-28T09:43:49;8.07;;;4.35;;
38851;SDS011;24605;50.092;9.182;2023-02-28T09:46:29;9.95;;;4.97;;
38851;SDS011;24605;50.092;9.182;2023-02-28T09:49:02;7.28;;;3.88;;
38851;SDS011;24605;50.092;9.182;2023-02-28T09:51:44;8.02;;;3.92;;
38851;SDS011;24605;50.092;9.182;2023-02-28T09:54:16;6.53;;;3.42;;
38851;SDS011;24605;50.092;9.182;2023-02-28T09:56:45;7.78;;;3.53;;
38851;SDS011;24605;50.092;9.182;2023-02-28T09:59:18;8.35;;;3.90;;
38851;SDS011;24605;50.092;9.182;2023-02-28T10:01:56;10.60;;;4.00;;
38851;SDS011;24605;50.092;9.182;2023-02-28T10:04:39;6.85;;;4.00;;
38851;SDS011;24605;50.092;9.182;2023-02-28T10:07:14;7.72;;;4.80;;
38851;SDS011;24605;50.092;9.182;2023-02-28T10:09:49;8.80;;;4.32;;
38851;SDS011;24605;50.092;9.182;2023-02-28T10:12:19;8.95;;;4.28;;
38851;SDS011;24605;50.092;9.182;2023-02-28T10:14:46;9.25;;;4.38;;
38851;SDS011;24605;50.092;9.182;2023-02-28T10:17:18;9.00;;;4.30;;
38851;SDS011;24605;50.092;9.182;2023-02-28T10:19:51;7.53;;;4.25;;
38851;SDS011;24605;50.092;9.182;2023-02-28T10:22:25;8.80;;;4.60;;
38851;SDS011;24605;50.092;9.182;2023-02-28T10:24:58;7.97;;;4.50;;
38851;SDS011;24605;50.092;9.182;2023-02-28T10:27:29;8.75;;;4.13;;
38851;SDS011;24605;50.092;9.182;2023-02-28T10:29:58;8.90;;;5.10;;
38851;SDS011;24605;50.092;9.182;2023-02-28T10:32:27;9.07;;;4.90;;
38851;SDS011;24605;50.092;9.182;2023-02-28T10:34:59;9.88;;;6.40;;
38851;SDS011;24605;50.092;9.182;2023-02-28T10:37:27;11.65;;;6.43;;
38851;SDS011;24605;50.092;9.182;2023-02-28T10:39:54;9.98;;;5.88;;
38851;SDS011;24605;50.092;9.182;2023-02-28T10:42:22;11.20;;;6.05;;
38851;SDS011;24605;50.092;9.182;2023-02-28T10:47:42;34.47;;;16.65;;
38851;SDS011;24605;50.092;9.182;2023-02-28T10:53:24;10.18;;;5.95;;
38851;SDS011;24605;50.092;9.182;2023-02-28T10:55:57;9.77;;;4.85;;
38851;SDS011;24605;50.092;9.182;2023-02-28T10:58:26;9.00;;;4.47;;
38851;SDS011;24605;50.092;9.182;2023-02-28T11:00:54;9.23;;;4.72;;
38851;SDS011;24605;50.092;9.182;2023-02-28T11:03:25;9.45;;;4.55;;
38851;SDS011;24605;50.092;9.182;2023-02-28T11:05:57;7.15;;;4.28;;
38851;SDS011;24605;50.092;9.182;2023-02-28T11:08:24;7.30;;;3.90;;
38851;SDS011;24605;50.092;9.182;2023-02-28T11:10:53;8.75;;;4.93;;
38851;SDS011;24605;50.092;9.182;2023-02-28T11:13:26;7.85;;;4.55;;
38851;SDS011;24605;50.092;9.182;2023-02-28T11:15:56;8.93;;;5.07;;
38851;SDS011;24605;50.092;9.182;2023-02-28T11:18:26;9.80;;;5.20;;
38851;SDS011;24605;50.092;9.182;2023-02-28T11:20:57;8.02;;;4.45;;
38851;SDS011;24605;50.092;9.182;2023-02-28T11:23:27;8.15;;;4.82;;
38851;SDS011;24605;50.092;9.182;2023-02-28T11:25:57;8.98;;;4.80;;
38851;SDS011;24605;50.092;9.182;2023-02-28T11:28:26;7.95;;;4.35;;
38851;SDS011;24605;50.092;9.182;2023-02-28T11:31:02;9.05;;;4.82;;
38851;SDS011;24605;50.092;9.182;2023-02-28T11:33:31;10.05;;;4.90;;
38851;SDS011;24605;50.092;9.182;2023-02-28T11:36:10;9.73;;;5.30;;
38851;SDS011;24605;50.092;9.182;2023-02-28T11:38:38;8.20;;;5.07;;
38851;SDS011;24605;50.092;9.182;2023-02-28T11:41:08;8.60;;;5.30;;
38851;SDS011;24605;50.092;9.182;2023-02-28T11:43:50;8.88;;;4.65;;
38851;SDS011;24605;50.092;9.182;2023-02-28T11:46:30;9.25;;;5.25;;
38851;SDS011;24605;50.092;9.182;2023-02-28T11:49:04;9.32;;;5.00;;
38851;SDS011;24605;50.092;9.182;2023-02-28T11:51:47;10.00;;;4.85;;
38851;SDS011;24605;50.092;9.182;2023-02-28T11:54:29;10.02;;;5.78;;
38851;SDS011;24605;50.092;9.182;2023-02-28T11:57:03;9.33;;;5.33;;
38851;SDS011;24605;50.092;9.182;2023-02-28T11:59:48;10.38;;;5.28;;
38851;SDS011;24605;50.092;9.182;2023-02-28T12:02:25;11.60;;;5.63;;
38851;SDS011;24605;50.092;9.182;2023-02-28T12:04:59;8.40;;;5.03;;
38851;SDS011;24605;50.092;9.182;2023-02-28T12:07:42;8.70;;;5.68;;
38851;SDS011;24605;50.092;9.182;2023-02-28T12:10:21;10.00;;;5.22;;
38851;SDS011;24605;50.092;9.182;2023-02-28T12:12:53;9.95;;;5.13;;
38851;SDS011;24605;50.092;9.182;2023-02-28T12:15:36;10.30;;;5.78;;
38851;SDS011;24605;50.092;9.182;2023-02-28T12:18:19;8.38;;;5.20;;
38851;SDS011;24605;50.092;9.182;2023-02-28T12:21:08;10.48;;;5.68;;
38851;SDS011;24605;50.092;9.182;2023-02-28T12:23:45;9.85;;;5.10;;
38851;SDS011;24605;50.092;9.182;2023-02-28T12:26:23;8.45;;;4.95;;
38851;SDS011;24605;50.092;9.182;2023-02-28T12:28:59;12.32;;;5.50;;
38851;SDS011;24605;50.092;9.182;2023-02-28T12:31:33;8.95;;;5.30;;
38851;SDS011;24605;50.092;9.182;2023-02-28T12:34:03;10.05;;;4.97;;
38851;SDS011;24605;50.092;9.182;2023-02-28T12:36:34;10.40;;;4.90;;
38851;SDS011;24605;50.092;9.182;2023-02-28T12:39:04;11.35;;;5.18;;
38851;SDS011;24605;50.092;9.182;2023-02-28T12:41:38;9.20;;;5.33;;
38851;SDS011;24605;50.092;9.182;2023-02-28T12:44:08;9.98;;;5.50;;
38851;SDS011;24605;50.092;9.182;2023-02-28T12:46:40;10.20;;;5.38;;
38851;SDS011;24605;50.092;9.182;2023-02-28T12:49:10;11.05;;;6.00;;
38851;SDS011;24605;50.092;9.182;2023-02-28T12:51:42;11.52;;;5.93;;
38851;SDS011;24605;50.092;9.182;2023-02-28T12:54:14;9.15;;;5.53;;
38851;SDS011;24605;50.092;9.182;2023-02-28T12:56:50;9.20;;;5.30;;
38851;SDS011;24605;50.092;9.182;2023-02-28T12:59:23;9.88;;;5.40;;
38851;SDS011;24605;50.092;9.182;2023-02-28T13:01:57;9.35;;;4.97;;
38851;SDS011;24605;50.092;9.182;2023-02-28T13:10:35;9.55;;;5.32;;
38851;SDS011;24605;50.092;9.182;2023-02-28T13:13:05;10.35;;;5.28;;
38851;SDS011;24605;50.092;9.182;2023-02-28T13:15:32;8.13;;;4.93;;
38851;SDS011;24605;50.092;9.182;2023-02-28T13:18:03;10.50;;;5.30;;
38851;SDS011;24605;50.092;9.182;2023-02-28T13:20:31;10.48;;;6.10;;
38851;SDS011;24605;50.092;9.182;2023-02-28T13:23:01;10.30;;;5.28;;
38851;SDS011;24605;50.092;9.182;2023-02-28T13:34:34;8.85;;;5.32;;
38851;SDS011;24605;50.092;9.182;2023-02-28T13:39:59;12.15;;;5.75;;
38851;SDS011;24605;50.092;9.182;2023-02-28T13:42:53;9.75;;;5.22;;
38851;SDS011;24605;50.092;9.182;2023-02-28T13:45:21;10.60;;;5.10;;
38851;SDS011;24605;50.092;9.182;2023-02-28T13:47:53;9.45;;;5.60;;
38851;SDS011;24605;50.092;9.182;2023-02-28T13:50:24;8.52;;;5.20;;
38851;SDS011;24605;50.092;9.182;2023-02-28T13:52:58;9.20;;;5.15;;
38851;SDS011;24605;50.092;9.182;2023-02-28T13:55:42;8.85;;;5.05;;
38851;SDS011;24605;50.092;9.182;2023-02-28T13:58:19;10.13;;;5.45;;
38851;SDS011;24605;50.092;9.182;2023-02-28T14:01:11;9.23;;;5.40;;
38851;SDS011;24605;50.092;9.182;2023-02-28T14:07:01;9.50;;;5.45;;
38851;SDS011;24605;50.092;9.182;2023-02-28T14:09:29;9.43;;;5.13;;
38851;SDS011;24605;50.092;9.182;2023-02-28T14:12:00;8.20;;;4.95;;
38851;SDS011;24605;50.092;9.182;2023-02-28T14:15:23;9.48;;;5.72;;
38851;SDS011;24605;50.092;9.182;2023-02-28T14:17:55;10.02;;;5.35;;
38851;SDS011;24605;50.092;9.182;2023-02-28T14:20:24;9.90;;;5.88;;
38851;SDS011;24605;50.092;9.182;2023-02-28T14:22:56;12.10;;;6.25;;
38851;SDS011;24605;50.092;9.182;2023-02-28T14:25:33;12.63;;;5.93;;
38851;SDS011;24605;50.092;9.182;2023-02-28T14:28:08;16.40;;;8.55;;
38851;SDS011;24605;50.092;9.182;2023-02-28T14:30:51;46.33;;;20.50;;
38851;SDS011;24605;50.092;9.182;2023-02-28T14:33:25;8.73;;;5.13;;
38851;SDS011;24605;50.092;9.182;2023-02-28T14:38:43;11.18;;;7.22;;
38851;SDS011;24605;50.092;9.182;2023-02-28T14:41:15;10.98;;;6.00;;
38851;SDS011;24605;50.092;9.182;2023-02-28T14:43:54;10.63;;;5.85;;
38851;SDS011;24605;50.092;9.182;2023-02-28T14:46:23;14.48;;;8.38;;
38851;SDS011;24605;50.092;9.182;2023-02-28T14:48:53;11.52;;;6.88;;
38851;SDS011;24605;50.092;9.182;2023-02-28T14:51:20;15.63;;;9.50;;
38851;SDS011;24605;50.092;9.182;2023-02-28T14:53:49;21.60;;;12.23;;
38851;SDS011;24605;50.092;9.182;2023-02-28T14:56:22;19.88;;;12.60;;
38851;SDS011;24605;50.092;9.182;2023-02-28T14:58:51;12.88;;;7.55;;
38851;SDS011;24605;50.092;9.182;2023-02-28T15:01:19;9.95;;;6.60;;
38851;SDS011;24605;50.092;9.182;2023-02-28T15:03:48;11.32;;;6.65;;
38851;SDS011;24605;50.092;9.182;2023-02-28T15:06:23;35.03;;;18.35;;
38851;SDS011;24605;50.092;9.182;2023-02-28T15:11:35;24.40;;;13.02;;
38851;SDS011;24605;50.092;9.182;2023-02-28T15:14:04;9.13;;;5.13;;
38851;SDS011;24605;50.092;9.182;2023-02-28T15:16:31;31.52;;;19.00;;
38851;SDS011;24605;50.092;9.182;2023-02-28T15:19:05;37.42;;;23.05;;
38851;SDS011;24605;50.092;9.182;2023-02-28T15:21:41;9.48;;;6.03;;
38851;SDS011;24605;50.092;9.182;2023-02-28T15:24:12;8.82;;;5.35;;
38851;SDS011;24605;50.092;9.182;2023-02-28T15:26:48;9.15;;;5.55;;
38851;SDS011;24605;50.092;9.182;2023-02-28T15:29:20;8.35;;;5.47;;
38851;SDS011;24605;50.092;9.182;2023-02-28T15:31:48;9.20;;;4.90;;
38851;SDS011;24605;50.092;9.182;2023-02-28T15:34:19;9.13;;;5.63;;
38851;SDS011;24605;50.092;9.182;2023-02-28T15:36:47;9.35;;;5.43;;
38851;SDS011;24605;50.092;9.182;2023-02-28T15:39:19;11.98;;;6.03;;
38851;SDS011;24605;50.092;9.182;2023-02-28T15:41:46;9.32;;;5.53;;
38851;SDS011;24605;50.092;9.182;2023-02-28T15:44:13;11.68;;;5.70;;
38851;SDS011;24605;50.092;9.182;2023-02-28T15:46:41;10.95;;;6.07;;
38851;SDS011;24605;50.092;9.182;2023-02-28T15:49:12;11.18;;;6.78;;